Time;durP1;ratioP1;P1;durP2;ratioP2;P2;SDS_P1;SDS_P2;PMS_P1;PMS_P2;Temp;Humidity;BMP_temperature;BMP_pressure;BME280_temperature;BME280_humidity;BME280_pressure;Samples;Min_cycle;Max_cycle;Signal;HPM_P1;HPM_P2
2024/01/12 00:01:29;;;;;;;3.50;1.90;;;;;;;-144.99;57.13;77908.86;108458;1251;74847;-79
2024/01/12 00:03:57;;;;;;;3.80;2.10;;;;;;;-144.99;57.68;77921.20;108440;1256;73211;-79
2024/01/12 00:06:24;;;;;;;2.00;1.50;;;;;;;-144.99;59.06;77939.52;108388;1251;72664;-79
2024/01/12 00:08:52;;;;;;;2.70;1.10;;;;;;;-144.99;60.25;77958.61;108335;1251;61067;-78
2024/01/12 00:11:20;;;;;;;1.70;1.00;;;;;;;-144.99;60.18;77977.31;108357;1251;60354;-79
2024/01/12 00:13:49;;;;;;;3.40;1.30;;;;;;;-144.99;60.14;77993.23;108400;1251;72636;-78
2024/01/12 00:16:20;;;;;;;3.40;1.70;;;;;;;-144.99;59.74;78015.52;108428;1256;73224;-79
2024/01/12 00:18:47;;;;;;;3.20;1.70;;;;;;;-144.99;58.49;78028.65;108374;1251;72778;-78
2024/01/12 00:21:15;;;;;;;4.80;1.70;;;;;;;-144.99;58.75;78047.36;108384;1256;61770;-78
2024/01/12 00:23:42;;;;;;;2.50;1.40;;;;;;;-144.99;57.31;78077.20;108474;1250;61093;-79
2024/01/12 00:26:10;;;;;;;1.40;1.20;;;;;;;-144.99;56.27;78104.27;108345;1251;74617;-78
2024/01/12 00:28:38;;;;;;;1.20;0.90;;;;;;;-144.99;55.07;78126.95;108440;1251;73665;-79
2024/01/12 00:31:06;;;;;;;1.30;0.80;;;;;;;-144.99;53.53;78146.45;108444;1251;71033;-78
2024/01/12 00:33:33;;;;;;;4.40;0.80;;;;;;;-144.99;53.62;78170.33;108287;1251;61256;-79
2024/01/12 00:36:01;;;;;;;1.30;0.70;;;;;;;-144.99;53.62;78189.83;108292;1251;61075;-78
2024/01/12 00:38:29;;;;;;;1.20;0.80;;;;;;;-144.99;54.13;78209.34;108317;1251;75062;-78
2024/01/12 00:40:57;;;;;;;2.40;1.40;;;;;;;-144.99;54.46;78232.42;108423;1251;72259;-78
2024/01/12 00:43:25;;;;;;;2.20;1.30;;;;;;;-144.99;55.24;78245.16;108330;1251;72409;-78
2024/01/12 00:45:52;;;;;;;2.90;1.50;;;;;;;-144.99;55.69;78259.88;108432;1251;61183;-78
2024/01/12 00:48:20;;;;;;;3.80;2.10;;;;;;;-144.99;56.36;78271.42;108330;1251;62007;-78
2024/01/12 00:50:48;;;;;;;2.30;1.30;;;;;;;-144.99;56.39;78288.13;108435;1251;75079;-78
2024/01/12 00:53:16;;;;;;;2.10;1.20;;;;;;;-144.99;55.64;78296.50;108300;1250;73673;-77
2024/01/12 00:55:44;;;;;;;3.50;1.20;;;;;;;-144.99;56.03;78302.07;108430;1251;71344;-77
2024/01/12 00:58:12;;;;;;;3.30;1.30;;;;;;;-144.99;56.68;78307.64;108434;1250;60786;-78
2024/01/12 01:00:40;;;;;;;4.90;2.10;;;;;;;-144.99;57.26;78314.80;108434;1251;61119;-77
2024/01/12 01:03:07;;;;;;;2.70;1.70;;;;;;;-144.99;57.26;78319.58;108470;1251;74864;-78
2024/01/12 01:05:35;;;;;;;2.50;1.70;;;;;;;-144.99;57.50;78327.14;108422;1251;73494;-78
2024/01/12 01:08:03;;;;;;;3.30;1.80;;;;;;;-144.99;57.38;78342.66;108349;1251;72947;-78
2024/01/12 01:10:30;;;;;;;2.10;1.60;;;;;;;-144.99;57.42;78360.17;108354;1251;61310;-77
2024/01/12 01:12:58;;;;;;;3.20;1.70;;;;;;;-144.99;57.54;78375.30;108420;1251;61217;-77
2024/01/12 01:15:26;;;;;;;2.70;1.80;;;;;;;-144.99;57.82;78394.00;108445;1251;73466;-76
2024/01/12 01:17:54;;;;;;;2.70;1.60;;;;;;;-144.99;57.87;78407.94;108433;1251;73574;-77
2024/01/12 01:20:22;;;;;;;2.70;1.70;;;;;;;-144.99;58.44;78417.88;108432;1251;72439;-77
2024/01/12 01:22:49;;;;;;;3.40;1.80;;;;;;;-144.99;58.98;78424.64;108387;1251;61647;-77
2024/01/12 01:25:18;;;;;;;3.80;1.60;;;;;;;-144.99;59.09;78432.21;108339;1251;60017;-77
2024/01/12 01:27:46;;;;;;;3.70;1.90;;;;;;;-144.99;59.96;78438.98;108464;1251;74700;-76
2024/01/12 01:30:14;;;;;;;4.30;1.90;;;;;;;-144.99;60.51;78449.32;108464;1251;73582;-76
2024/01/12 01:32:41;;;;;;;4.60;2.50;;;;;;;-144.99;61.37;78458.08;108335;1251;72235;-76
2024/01/12 01:35:09;;;;;;;6.80;2.80;;;;;;;-144.99;62.09;78460.48;108321;1251;61093;-76
2024/01/12 01:37:37;;;;;;;8.60;3.30;;;;;;;-144.99;62.11;78466.04;108398;1256;61081;-77
2024/01/12 01:40:07;;;;;;;3.80;2.40;;;;;;;-144.99;61.99;78475.59;108346;1251;74534;-76
2024/01/12 01:42:35;;;;;;;3.20;2.00;;;;;;;-144.99;62.05;78486.34;108481;1251;74959;-76
2024/01/12 01:45:03;;;;;;;5.50;2.90;;;;;;;-144.99;61.79;78500.27;108451;1253;72314;-76
2024/01/12 01:47:30;;;;;;;4.90;2.70;;;;;;;-144.99;62.28;78513.00;108427;1251;61169;-76
2024/01/12 01:49:58;;;;;;;9.80;3.80;;;;;;;-144.99;62.57;78530.92;108279;1251;61122;-76
2024/01/12 01:52:26;;;;;;;12.60;5.20;;;;;;;-144.99;62.66;78550.82;108439;1251;73594;-76
2024/01/12 01:54:54;;;;;;;8.50;4.00;;;;;;;-144.99;63.08;78561.57;108503;1251;73250;-76
2024/01/12 01:57:21;;;;;;;8.50;4.00;;;;;;;-144.99;63.60;78575.09;108383;1253;72769;-76
2024/01/12 01:59:49;;;;;;;7.00;3.50;;;;;;;-144.99;64.12;78579.88;108305;1251;61227;-76
2024/01/12 02:02:17;;;;;;;11.30;3.80;;;;;;;-144.99;64.30;78588.63;108290;1251;60824;-75
2024/01/12 02:04:44;;;;;;;13.20;4.10;;;;;;;-144.99;64.70;78591.81;108345;1250;74521;-76
2024/01/12 02:07:12;;;;;;;10.70;4.60;;;;;;;-144.99;65.06;78587.04;108324;1250;73359;-75
2024/01/12 02:09:40;;;;;;;26.00;7.20;;;;;;;-144.99;65.23;78590.22;108333;1251;71464;-76
2024/01/12 02:12:07;;;;;;;21.10;8.00;;;;;;;-144.99;64.90;78593.02;108520;1251;61396;-76
2024/01/12 02:14:35;;;;;;;23.60;9.00;;;;;;;-144.99;64.51;78604.55;108424;1254;61253;-76
2024/01/12 02:17:03;;;;;;;17.80;7.20;;;;;;;-144.99;63.87;78614.49;108489;1251;74711;-77
2024/01/12 02:19:31;;;;;;;13.70;5.80;;;;;;;-144.99;63.54;78630.42;108372;1257;73438;-77
2024/01/12 02:21:59;;;;;;;10.30;4.90;;;;;;;-144.99;63.42;78646.74;108386;1251;72855;-77
2024/01/12 02:24:27;;;;;;;9.00;4.40;;;;;;;-144.99;63.63;78659.48;108470;1251;61176;-77
2024/01/12 02:26:55;;;;;;;8.30;4.80;;;;;;;-144.99;63.59;78673.41;108480;1250;61131;-76
2024/01/12 02:29:22;;;;;;;8.60;4.70;;;;;;;-144.99;64.12;78677.78;108375;1251;74687;-76
2024/01/12 02:31:50;;;;;;;7.90;4.60;;;;;;;-144.99;63.87;78680.17;108338;1250;71782;-76
2024/01/12 02:34:18;;;;;;;9.30;4.70;;;;;;;-144.99;64.05;78685.35;108496;1251;71125;-77
2024/01/12 02:36:45;;;;;;;8.80;4.90;;;;;;;-144.99;64.22;78683.77;108406;1251;60290;-76
2024/01/12 02:39:13;;;;;;;10.70;5.30;;;;;;;-144.99;64.50;78685.75;108492;1251;61288;-76
2024/01/12 02:41:40;;;;;;;11.20;6.80;;;;;;;-144.99;64.40;78693.71;108477;1251;74677;-76
2024/01/12 02:44:08;;;;;;;15.30;7.80;;;;;;;-144.99;64.47;78700.08;108422;1251;73672;-76
2024/01/12 02:46:36;;;;;;;12.90;7.60;;;;;;;-144.99;64.32;78711.22;108459;1251;72348;-78
2024/01/12 02:49:04;;;;;;;10.80;5.80;;;;;;;-144.99;64.67;78725.15;108449;1250;60318;-77
2024/01/12 02:51:31;;;;;;;14.80;7.10;;;;;;;-144.99;64.59;78738.68;108492;1250;61147;-75
2024/01/12 02:53:59;;;;;;;6.00;3.50;;;;;;;-144.99;64.83;78756.20;108497;1251;74889;-76
2024/01/12 02:56:27;;;;;;;5.20;3.30;;;;;;;-144.99;65.04;78765.35;108422;1251;72999;-75
2024/01/12 02:58:55;;;;;;;6.10;3.10;;;;;;;-144.99;65.32;78773.31;108473;1252;74690;-75
2024/01/12 03:01:22;;;;;;;17.40;6.50;;;;;;;-144.99;66.13;78780.88;108468;1253;61231;-76
2024/01/12 03:03:50;;;;;;;32.60;13.40;;;;;;;-144.99;66.52;78788.84;108400;1250;61157;-76
2024/01/12 03:06:18;;;;;;;37.00;12.80;;;;;;;-144.99;66.46;78796.80;108362;1251;73396;-76
2024/01/12 03:08:46;;;;;;;44.70;15.90;;;;;;;-144.99;66.72;78803.17;108367;1251;73624;-76
2024/01/12 03:11:14;;;;;;;22.20;8.40;;;;;;;-144.99;67.19;78808.34;108418;1251;72556;-76
2024/01/12 03:13:41;;;;;;;13.80;5.40;;;;;;;-144.99;67.22;78815.90;108310;1251;61119;-76
2024/01/12 03:16:19;;;;;;;13.00;4.50;;;;;;;-144.99;67.39;78827.45;108430;1251;60262;-76
2024/01/12 03:18:50;;;;;;;8.80;3.80;;;;;;;-144.99;67.70;78840.98;108513;1251;74565;-76
2024/01/12 03:21:18;;;;;;;10.30;4.30;;;;;;;-144.99;67.68;78847.75;108463;1251;73667;-76
2024/01/12 03:23:47;;;;;;;10.60;5.00;;;;;;;-144.99;67.99;78865.27;108424;1251;71831;-76
2024/01/12 03:26:16;;;;;;;8.30;3.80;;;;;;;-144.99;69.00;78874.42;108418;1251;61235;-77
2024/01/12 03:28:44;;;;;;;2.20;1.60;;;;;;;-144.99;69.16;78884.77;108421;1251;61866;-77
2024/01/12 03:31:11;;;;;;;1.20;1.10;;;;;;;-144.99;69.63;78892.73;108420;1251;74662;-77
2024/01/12 03:33:42;;;;;;;2.60;1.90;;;;;;;-144.99;69.79;78902.67;108416;1251;74034;-76
2024/01/12 03:36:10;;;;;;;4.70;2.60;;;;;;;-144.99;70.36;78917.40;108446;1251;72651;-77
2024/01/12 03:38:38;;;;;;;8.30;3.90;;;;;;;-144.99;70.75;78933.33;108474;1254;61157;-77
2024/01/12 03:41:06;;;;;;;6.50;3.10;;;;;;;-144.99;70.58;78936.11;108441;1251;61084;-77
2024/01/12 03:43:34;;;;;;;2.30;1.60;;;;;;;-144.99;70.64;78946.86;108419;1251;73925;-76
2024/01/12 03:46:01;;;;;;;1.80;1.30;;;;;;;-144.99;71.33;78953.64;108443;1256;73848;-77
2024/01/12 03:48:29;;;;;;;1.50;0.90;;;;;;;-144.99;71.64;78960.01;108424;1254;72703;-76
2024/01/12 03:50:57;;;;;;;2.70;1.50;;;;;;;-144.99;71.82;78971.94;108310;1251;62431;-76
2024/01/12 03:53:25;;;;;;;3.30;2.60;;;;;;;-144.99;72.37;78976.32;108454;1251;61164;-76
2024/01/12 03:55:53;;;;;;;3.80;2.60;;;;;;;-144.99;72.54;78984.67;108349;1250;74877;-76
2024/01/12 03:58:21;;;;;;;2.40;1.70;;;;;;;-144.99;73.09;78995.03;108455;1251;72391;-76
2024/01/12 04:00:48;;;;;;;4.30;1.50;;;;;;;-144.99;73.60;79005.77;108424;1251;72691;-76
2024/01/12 04:03:16;;;;;;;4.60;1.50;;;;;;;-144.99;73.97;79008.96;108342;1251;61123;-76
2024/01/12 04:05:44;;;;;;;4.40;2.50;;;;;;;-144.99;74.68;79007.77;108349;1251;59957;-78
2024/01/12 04:08:11;;;;;;;3.60;2.60;;;;;;;-144.99;74.66;78997.41;108469;1251;74593;-77
2024/01/12 04:10:39;;;;;;;5.10;2.90;;;;;;;-144.99;74.85;78993.83;108459;1251;73645;-77
2024/01/12 04:13:07;;;;;;;4.20;2.60;;;;;;;-144.99;74.89;79008.16;108375;1256;72695;-77
2024/01/12 04:15:34;;;;;;;3.90;2.50;;;;;;;-144.99;75.06;79018.11;108452;1252;61215;-77
2024/01/12 04:18:02;;;;;;;5.10;3.00;;;;;;;-144.99;75.11;79027.67;108463;1251;61182;-77
2024/01/12 04:20:30;;;;;;;12.10;4.60;;;;;;;-144.99;75.03;79049.56;108362;1251;74568;-77
2024/01/12 04:22:58;;;;;;;46.30;14.00;;;;;;;-144.99;74.80;79081.02;108313;1251;73445;-76
2024/01/12 04:25:26;;;;;;;10.70;6.20;;;;;;;-144.99;75.69;79101.71;108426;1252;71261;-77
2024/01/12 04:27:53;;;;;;;5.10;3.00;;;;;;;-144.99;76.58;79114.05;108410;1251;61051;-77
2024/01/12 04:30:21;;;;;;;11.60;5.00;;;;;;;-144.99;77.28;79119.63;108442;1251;61221;-77
2024/01/12 04:32:49;;;;;;;3.90;3.00;;;;;;;-144.99;77.51;79127.59;108395;1250;76534;-77
2024/01/12 04:35:17;;;;;;;14.60;6.00;;;;;;;-144.99;78.24;79132.36;108390;1251;73413;-75
2024/01/12 04:37:44;;;;;;;26.10;10.40;;;;;;;-144.99;78.40;79127.19;108463;1250;70705;-76
2024/01/12 04:40:12;;;;;;;39.70;16.50;;;;;;;-144.99;78.38;79123.60;108454;1251;61333;-77
2024/01/12 04:42:40;;;;;;;30.80;16.50;;;;;;;-144.99;78.18;79128.38;108427;1251;61234;-76
2024/01/12 04:45:08;;;;;;;12.80;6.90;;;;;;;-144.99;78.29;79130.38;108304;1251;74509;-76
2024/01/12 04:47:36;;;;;;;18.20;10.60;;;;;;;-144.99;77.60;79138.73;108480;1251;73415;-76
2024/01/12 04:50:04;;;;;;;12.70;7.80;;;;;;;-144.99;76.96;79153.86;108456;1251;72300;-76
2024/01/12 04:52:32;;;;;;;10.10;6.20;;;;;;;-144.99;77.33;79164.20;108417;1251;60405;-76
2024/01/12 04:54:59;;;;;;;10.40;6.10;;;;;;;-144.99;77.27;79176.95;108433;1251;61096;-76
2024/01/12 04:57:30;;;;;;;18.70;12.70;;;;;;;-144.99;76.95;79192.47;108430;1251;73391;-76
2024/01/12 04:59:57;;;;;;;15.60;8.50;;;;;;;-144.99;77.23;79200.84;108469;1251;74005;-76
2024/01/12 05:02:25;;;;;;;9.90;5.30;;;;;;;-144.99;76.87;79205.21;108425;1251;73036;-76
2024/01/12 05:04:52;;;;;;;8.50;4.80;;;;;;;-144.99;76.50;79224.71;108383;1251;60972;-76
2024/01/12 05:07:20;;;;;;;8.00;4.80;;;;;;;-144.99;76.57;79249.40;108382;1251;61129;-76
2024/01/12 05:09:48;;;;;;;8.30;4.90;;;;;;;-144.99;77.15;79268.11;108365;1250;73580;-76
2024/01/12 05:12:15;;;;;;;14.10;7.40;;;;;;;-144.99;77.94;79285.63;108416;1256;74314;-77
2024/01/12 05:14:43;;;;;;;10.70;6.00;;;;;;;-144.99;78.99;79293.59;108466;1250;70164;-77
2024/01/12 05:17:14;;;;;;;13.10;6.30;;;;;;;-144.99;79.88;79284.83;108440;1251;61080;-77
2024/01/12 05:19:42;;;;;;;11.90;8.10;;;;;;;-144.99;79.34;79281.64;108407;1251;61224;-77
2024/01/12 05:22:10;;;;;;;12.80;8.50;;;;;;;-144.99;79.47;79289.61;108390;1251;74715;-77
2024/01/12 05:24:37;;;;;;;11.10;6.50;;;;;;;-144.99;79.42;79309.51;108443;1251;73087;-77
2024/01/12 05:27:05;;;;;;;14.80;7.60;;;;;;;-144.99;79.52;79331.40;108409;1251;72672;-77
2024/01/12 05:29:34;;;;;;;19.20;7.40;;;;;;;-144.99;80.07;79368.42;108381;1251;61705;-77
2024/01/12 05:32:02;;;;;;;84.20;32.20;;;;;;;-144.99;81.16;79384.35;108390;1253;61044;-77
2024/01/12 05:34:29;;;;;;;47.30;18.90;;;;;;;-144.99;81.67;79393.52;108374;1253;74643;-77
2024/01/12 05:36:57;;;;;;;44.90;18.50;;;;;;;-144.99;82.15;79401.07;108384;1251;72429;-77
2024/01/12 05:39:25;;;;;;;42.90;18.20;;;;;;;-144.99;82.64;79402.66;108410;1256;72636;-77
2024/01/12 05:41:55;;;;;;;44.90;18.80;;;;;;;-144.99;83.47;79400.67;108470;1251;61141;-77
2024/01/12 05:44:23;;;;;;;33.90;15.40;;;;;;;-144.99;83.86;79397.10;108398;1251;60104;-77
2024/01/12 05:46:50;;;;;;;26.10;12.70;;;;;;;-144.99;84.14;79390.71;108369;1250;74531;-76
2024/01/12 05:49:18;;;;;;;25.50;11.90;;;;;;;-144.99;84.79;79388.33;108351;1250;71484;-77
2024/01/12 05:51:50;;;;;;;26.80;13.30;;;;;;;-144.99;84.67;79385.15;108361;1251;73046;-76
2024/01/12 05:54:17;;;;;;;48.90;21.00;;;;;;;-144.99;85.20;79379.18;108435;1256;61247;-76
2024/01/12 05:56:45;;;;;;;51.80;24.40;;;;;;;-144.99;85.87;79366.83;108426;1251;61120;-76
2024/01/12 05:59:13;;;;;;;65.70;30.60;;;;;;;-144.99;85.80;79340.56;108667;1251;75164;-76
2024/01/12 06:01:41;;;;;;;45.90;22.50;;;;;;;-144.99;85.39;79317.87;108411;1251;73472;-76
2024/01/12 06:04:08;;;;;;;42.60;20.10;;;;;;;-144.99;84.43;79306.73;108368;1251;72609;-76
2024/01/12 06:06:36;;;;;;;46.30;21.70;;;;;;;-144.99;82.82;79306.73;108252;1251;61388;-76
2024/01/12 06:09:05;;;;;;;37.10;17.00;;;;;;;-144.99;81.78;79319.06;108410;1251;60091;-75
2024/01/12 06:11:32;;;;;;;30.00;14.00;;;;;;;-144.99;80.97;79347.33;108230;1254;177351;-75
2024/01/12 06:14:00;;;;;;;24.00;12.10;;;;;;;-144.99;80.56;79379.98;108446;1251;73472;-76
2024/01/12 06:16:28;;;;;;;30.90;12.40;;;;;;;-144.99;80.70;79404.26;108327;1251;72420;-76
2024/01/12 06:18:56;;;;;;;20.10;10.10;;;;;;;-144.99;80.56;79416.60;108402;1251;61260;-76
2024/01/12 06:21:23;;;;;;;12.90;7.90;;;;;;;-144.99;80.92;79438.89;108334;1255;61112;-75
2024/01/12 06:23:51;;;;;;;15.40;7.70;;;;;;;-144.99;80.93;79451.63;108360;1250;74670;-75
2024/01/12 06:26:19;;;;;;;17.50;7.00;;;;;;;-144.99;81.11;79459.20;108293;1251;73600;-76
2024/01/12 06:28:47;;;;;;;14.50;7.30;;;;;;;-144.99;81.85;79470.34;108333;1251;72872;-76
2024/01/12 06:31:15;;;;;;;11.80;6.40;;;;;;;-144.99;82.50;79469.14;108295;1251;61211;-76
2024/01/12 06:33:43;;;;;;;12.90;7.30;;;;;;;-144.99;83.43;79452.02;108335;1251;61218;-76
2024/01/12 06:36:10;;;;;;;14.20;8.00;;;;;;;-144.99;83.16;79441.28;108348;1251;73916;-76
2024/01/12 06:38:38;;;;;;;16.90;8.90;;;;;;;-144.99;82.94;79429.33;108277;1251;73717;-77
2024/01/12 06:41:06;;;;;;;13.90;8.80;;;;;;;-144.99;83.64;79413.81;108186;1251;72730;-77
2024/01/12 06:43:36;;;;;;;17.20;9.50;;;;;;;-144.99;83.62;79398.68;108134;1250;61074;-77
2024/01/12 06:46:07;;;;;;;25.80;12.40;;;;;;;-144.99;84.10;79379.58;108099;1253;61199;-85
2024/01/12 06:48:35;;;;;;;22.70;11.30;;;;;;;-144.99;84.08;79356.09;108139;1251;74950;-76
2024/01/12 06:51:03;;;;;;;19.10;9.50;;;;;;;-144.99;84.44;79333.80;108251;1251;73600;-79
2024/01/12 06:53:31;;;;;;;18.80;10.30;;;;;;;-144.99;84.52;79313.48;108342;1251;71455;-76
2024/01/12 06:55:58;;;;;;;30.00;14.10;;;;;;;-144.99;84.66;79295.17;108289;1251;61186;-76
2024/01/12 06:58:26;;;;;;;35.10;15.40;;;;;;;-144.99;84.42;79272.09;108319;1250;62029;-76
2024/01/12 07:00:54;;;;;;;66.30;23.50;;;;;;;-144.99;83.84;79259.35;108388;1249;74622;-77
2024/01/12 07:03:21;;;;;;;91.40;33.30;;;;;;;-144.99;83.62;79245.81;108405;1251;73492;-77
2024/01/12 07:05:49;;;;;;;73.40;30.80;;;;;;;-144.99;83.30;79232.29;108400;1251;74028;-76
2024/01/12 07:08:17;;;;;;;60.00;25.40;;;;;;;-144.99;83.44;79220.73;108401;1251;62284;-77
2024/01/12 07:10:45;;;;;;;65.00;25.60;;;;;;;-144.99;83.75;79204.02;108202;1249;61410;-76
2024/01/12 07:13:13;;;;;;;50.40;23.10;;;;;;;-144.99;83.55;79187.30;108151;1250;73785;-76
2024/01/12 07:15:41;;;;;;;56.70;26.00;;;;;;;-144.99;83.86;79170.98;108251;1251;73566;-77
2024/01/12 07:18:09;;;;;;;73.60;32.00;;;;;;;-144.99;84.38;79150.27;108446;1249;74280;-77
2024/01/12 07:20:36;;;;;;;55.20;24.50;;;;;;;-144.99;84.88;79120.02;108382;1251;61243;-79
2024/01/12 07:23:04;;;;;;;62.00;28.20;;;;;;;-144.99;84.93;79087.38;108439;1251;61206;-77
2024/01/12 07:25:33;;;;;;;100.70;41.60;;;;;;;-144.99;84.54;79062.70;108388;1250;74727;-77
2024/01/12 07:28:03;;;;;;;110.60;44.70;;;;;;;-144.99;83.95;79041.60;108481;1251;72814;-77
2024/01/12 07:30:30;;;;;;;109.30;42.60;;;;;;;-144.99;82.82;79023.69;108426;1251;71133;-78
2024/01/12 07:32:59;;;;;;;102.50;40.20;;;;;;;-144.99;82.29;79016.52;108401;1250;60456;-77
2024/01/12 07:35:26;;;;;;;92.70;38.70;;;;;;;-144.99;81.82;79008.16;108394;1251;60117;-77
2024/01/12 07:37:54;;;;;;;75.40;33.40;;;;;;;-144.99;81.61;78994.23;108375;1250;73408;-76
2024/01/12 07:40:22;;;;;;;54.50;25.60;;;;;;;-144.99;81.34;78981.89;108428;1251;73499;-77
2024/01/12 07:42:50;;;;;;;42.80;21.80;;;;;;;-144.99;81.07;78974.73;108364;1251;72577;-77
2024/01/12 07:45:17;;;;;;;64.40;29.70;;;;;;;-144.99;80.50;78964.38;108338;1250;61284;-76
2024/01/12 07:47:45;;;;;;;40.50;22.90;;;;;;;-144.99;80.03;78950.84;108293;1250;60994;-77
2024/01/12 07:50:13;;;;;;;14.80;10.20;;;;;;;-144.99;79.03;78936.91;108436;1251;74583;-77
2024/01/12 07:52:45;;;;;;;35.30;16.20;;;;;;;-144.99;78.00;78926.56;108364;1251;76065;-79
2024/01/12 07:55:13;;;;;;;56.70;23.70;;;;;;;-144.99;77.48;78930.15;108486;1251;70355;-76
2024/01/12 07:57:41;;;;;;;70.90;27.20;;;;;;;-144.99;77.39;78931.34;108431;1250;61075;-77
2024/01/12 08:00:11;;;;;;;80.00;28.20;;;;;;;-144.99;77.80;78926.95;108435;1250;61218;-76
2024/01/12 08:02:39;;;;;;;76.30;30.90;;;;;;;-144.99;77.87;78910.24;108457;1251;74673;-76
2024/01/12 08:05:07;;;;;;;85.50;34.10;;;;;;;-144.99;77.39;78900.29;108330;1251;74022;-76
2024/01/12 08:07:36;;;;;;;218.30;75.40;;;;;;;-144.99;77.36;78889.54;108357;1251;71578;-76
2024/01/12 08:10:04;;;;;;;345.60;107.60;;;;;;;-144.99;77.17;78878.40;108487;1253;61188;-75
2024/01/12 08:12:32;;;;;;;194.90;64.00;;;;;;;-144.99;77.37;78868.05;108398;1251;60685;-77
2024/01/12 08:15:00;;;;;;;92.50;39.00;;;;;;;-144.99;77.35;78850.93;108389;1251;76617;-76
2024/01/12 08:17:28;;;;;;;70.00;33.90;;;;;;;-144.99;77.29;78841.39;108454;1251;74542;-77
2024/01/12 08:19:56;;;;;;;85.70;38.00;;;;;;;-144.99;76.65;78838.60;108453;1249;72688;-75
2024/01/12 08:22:23;;;;;;;60.50;31.60;;;;;;;-144.99;77.00;78838.99;108383;1249;61218;-78
2024/01/12 08:24:51;;;;;;;41.00;21.10;;;;;;;-144.99;76.69;78833.42;108384;1251;61067;-75
2024/01/12 08:27:19;;;;;;;39.80;19.00;;;;;;;-144.99;76.17;78833.42;108424;1250;74655;-75
2024/01/12 08:29:47;;;;;;;45.00;25.50;;;;;;;-144.99;76.00;78835.41;108392;1251;72896;-75
2024/01/12 08:32:15;;;;;;;39.30;20.10;;;;;;;-144.99;75.92;78833.02;108413;1251;75097;-75
2024/01/12 08:34:42;;;;;;;46.60;24.60;;;;;;;-144.99;76.03;78822.27;108405;1251;63149;-76
2024/01/12 08:37:10;;;;;;;48.30;24.70;;;;;;;-144.99;76.08;78813.12;108521;1250;61947;-76
2024/01/12 08:39:38;;;;;;;49.70;21.60;;;;;;;-144.99;76.19;78811.53;108505;1249;74675;-76
2024/01/12 08:42:06;;;;;;;44.50;21.40;;;;;;;-144.99;76.26;78796.80;108430;1255;73548;-75
2024/01/12 08:44:34;;;;;;;55.20;24.70;;;;;;;-144.99;76.38;78786.45;108441;1251;75159;-75
2024/01/12 08:47:02;;;;;;;93.20;33.40;;;;;;;-144.99;76.14;78775.31;108425;1251;61071;-76
2024/01/12 08:49:29;;;;;;;70.10;29.40;;;;;;;-144.99;76.02;78771.33;108356;1250;61373;-76
2024/01/12 08:51:57;;;;;;;41.70;19.20;;;;;;;-144.99;75.79;78765.75;108297;1251;74447;-75
2024/01/12 08:54:25;;;;;;;28.10;12.70;;;;;;;-144.99;75.47;78772.12;108134;1251;73972;-75
2024/01/12 08:56:53;;;;;;;26.20;12.80;;;;;;;-144.99;75.64;78774.11;108342;1250;73095;-75
2024/01/12 08:59:22;;;;;;;33.20;15.40;;;;;;;-144.99;75.43;78775.70;108410;1251;61222;-76
2024/01/12 09:01:50;;;;;;;20.80;10.20;;;;;;;-144.99;75.75;78771.33;108377;1252;61110;-76
2024/01/12 09:04:17;;;;;;;60.20;22.80;;;;;;;-144.99;75.70;78762.17;108446;1251;74757;-75
2024/01/12 09:06:45;;;;;;;92.50;38.80;;;;;;;-144.99;75.65;78760.98;108435;1251;73662;-74
2024/01/12 09:09:15;;;;;;;23.80;13.60;;;;;;;-144.99;75.68;78756.20;108324;1251;74661;-76
2024/01/12 09:11:43;;;;;;;43.40;19.40;;;;;;;-144.99;76.04;78750.63;108289;1251;61311;-75
2024/01/12 09:14:11;;;;;;;31.80;15.40;;;;;;;-144.99;76.01;78740.27;108389;1249;61080;-76
2024/01/12 09:16:38;;;;;;;34.60;17.30;;;;;;;-144.99;75.98;78726.35;108397;1251;75975;-76
2024/01/12 09:19:07;;;;;;;41.60;20.70;;;;;;;-144.99;76.17;78706.45;108381;1256;72349;-75
2024/01/12 09:21:36;;;;;;;44.30;19.50;;;;;;;-144.99;75.65;78683.76;108519;1254;73500;-77
2024/01/12 09:24:04;;;;;;;34.30;16.80;;;;;;;-144.99;75.12;78659.08;108416;1254;61095;-77
2024/01/12 09:26:31;;;;;;;22.10;10.90;;;;;;;-144.99;74.44;78631.21;108348;1251;60171;-75
2024/01/12 09:28:59;;;;;;;13.80;7.30;;;;;;;-144.99;73.92;78602.55;108403;1249;74433;-75
2024/01/12 09:31:27;;;;;;;12.10;6.90;;;;;;;-144.99;72.73;78571.91;108373;1251;73177;-76
2024/01/12 09:33:55;;;;;;;8.90;4.30;;;;;;;-144.99;72.79;78548.43;108468;1254;72805;-76
2024/01/12 09:36:23;;;;;;;6.90;3.60;;;;;;;-144.99;71.98;78517.78;108434;1250;61150;-75
2024/01/12 09:38:51;;;;;;;5.20;3.20;;;;;;;-144.99;71.41;78487.93;108382;1250;61083;-76
2024/01/12 09:41:24;;;;;;;4.30;2.90;;;;;;;-144.99;69.85;78470.02;108443;1250;73433;-77
2024/01/12 09:43:57;;;;;;;5.50;3.20;;;;;;;-144.99;68.25;78465.24;108375;1250;73484;-76
2024/01/12 09:46:30;;;;;;;6.00;3.10;;;;;;;-144.99;67.86;78465.64;108392;1251;74934;-77
2024/01/12 09:48:58;;;;;;;3.80;2.60;;;;;;;-144.99;67.42;78461.27;108421;1251;61200;-76
2024/01/12 09:51:27;;;;;;;6.30;3.00;;;;;;;-144.99;67.60;78452.90;108392;1250;61204;-76
2024/01/12 09:53:56;;;;;;;5.40;3.00;;;;;;;-144.99;68.06;78447.73;108248;1251;75838;-80
2024/01/12 09:56:24;;;;;;;4.20;2.50;;;;;;;-144.99;68.07;78435.39;108335;1251;75975;-76
2024/01/12 09:59:08;;;;;;;4.30;2.10;;;;;;;-144.99;67.29;78425.44;108308;1254;73576;-77
2024/01/12 10:01:39;;;;;;;6.30;3.50;;;;;;;-144.99;67.10;78418.27;108361;1254;62712;-76
2024/01/12 10:04:08;;;;;;;6.80;3.70;;;;;;;-144.99;67.03;78415.50;108407;1251;61785;-76
2024/01/12 10:06:37;;;;;;;9.30;5.90;;;;;;;-144.99;67.58;78396.79;108368;1250;76944;-75
2024/01/12 10:09:06;;;;;;;11.40;7.30;;;;;;;-144.99;67.40;78376.48;108455;1250;72637;-75
2024/01/12 10:11:35;;;;;;;8.90;6.80;;;;;;;-144.99;67.51;78360.17;108432;1252;73006;-77
2024/01/12 10:14:04;;;;;;;14.30;9.10;;;;;;;-144.99;67.55;78358.98;108466;1255;61307;-77
2024/01/12 10:16:32;;;;;;;13.20;7.80;;;;;;;-144.99;68.19;78355.80;108366;1256;61111;-74
2024/01/12 10:18:59;;;;;;;15.30;10.50;;;;;;;-144.99;67.40;78351.42;108454;1249;73825;-76
2024/01/12 10:21:27;;;;;;;13.10;8.20;;;;;;;-144.99;66.84;78350.23;108235;1251;72470;-77
2024/01/12 10:24:02;;;;;;;11.60;6.60;;;;;;;-144.99;66.82;78341.07;108419;1252;74781;-76
2024/01/12 10:26:30;;;;;;;14.60;9.90;;;;;;;-144.99;66.33;78333.91;108241;1255;61074;-77
2024/01/12 10:29:02;;;;;;;25.20;15.40;;;;;;;-144.99;66.47;78325.15;108363;1250;61260;-74
2024/01/12 10:31:30;;;;;;;22.90;13.50;;;;;;;-144.99;66.80;78314.01;109039;1251;76526;-76
2024/01/12 10:34:00;;;;;;;23.60;13.70;;;;;;;-144.99;66.92;78302.46;108378;1250;72401;-73
2024/01/12 10:36:28;;;;;;;20.30;11.50;;;;;;;-144.99;66.51;78286.55;108257;1251;71775;-75
2024/01/12 10:38:58;;;;;;;17.40;10.40;;;;;;;-144.99;65.51;78274.61;108324;1254;60292;-75
2024/01/12 10:41:26;;;;;;;14.20;8.10;;;;;;;-144.99;64.93;78275.00;108315;1250;60859;-75
2024/01/12 10:43:59;;;;;;;12.50;8.50;;;;;;;-144.99;63.91;78265.45;108158;1250;75344;-75
2024/01/12 10:46:42;;;;;;;11.20;8.70;;;;;;;-144.99;63.74;78255.10;108482;1256;74486;-75
2024/01/12 10:49:16;;;;;;;11.80;7.50;;;;;;;-144.99;62.88;78239.98;108463;1251;71193;-77
2024/01/12 10:51:58;;;;;;;19.70;10.90;;;;;;;-144.99;62.04;78247.55;108411;1251;61256;-80
2024/01/12 10:54:33;;;;;;;9.60;5.80;;;;;;;-144.99;60.64;78255.10;108383;1250;61778;-77
2024/01/12 10:57:00;;;;;;;11.50;6.90;;;;;;;-144.99;60.42;78263.46;108460;1251;74670;-77
2024/01/12 10:59:29;;;;;;;10.20;5.90;;;;;;;-144.99;60.09;78254.31;108351;1251;73336;-76
2024/01/12 11:01:57;;;;;;;8.90;5.60;;;;;;;-144.99;59.52;78255.50;108284;1253;71961;-74
2024/01/12 11:04:24;;;;;;;8.70;5.70;;;;;;;-144.99;59.36;78250.33;108457;1251;61023;-77
2024/01/12 11:06:55;;;;;;;10.40;7.50;;;;;;;-144.99;59.53;78244.75;108319;1250;61096;-73